Waswanipi, Canada
Current Conditions -  °F | °C
As of 8:48 AM on Friday 31 Oct 2014 (Local Time) from CYNM Reporting Station
Light Snow Light Snow  
Wind Chill: -8°   Ceiling: 900
Heat Index: -3°   Visibility: 9mi
Dew Point: -3°   Wind: 9mph
Humidity: 100%   Direction: 330°NNW
Pressure: 30.13"   Gusts: NA
Location:  49.65°N, 76.48°W
Report Text: CYNM 311248Z AUTO 33008KT 9SM -SN BKN009 BKN013 OVC024 M03/M03 A3013 RMK ICG MISG SLP219
Loading
Personal Weather Stations






























Interactive Weather Map
Tropical Storm Tracking
New forecast layout! Learn more

10-Day Weather Forecast

Advertisements
Track Severe Weather on mobile